sensor_id;sensor_type;location;lat;lon;timestamp;P1;durP1;ratioP1;P2;durP2;ratioP2
6436;SDS011;3251;53.550;9.918;2024-03-07T06:56:18;30.47;;;12.73;;
6436;SDS011;3251;53.550;9.918;2024-03-07T06:58:44;17.50;;;9.97;;
6436;SDS011;3251;53.550;9.918;2024-03-07T07:01:13;24.30;;;12.00;;
6436;SDS011;3251;53.550;9.918;2024-03-07T07:03:43;36.03;;;14.20;;
6436;SDS011;3251;53.550;9.918;2024-03-07T07:06:09;10.20;;;5.63;;
6436;SDS011;3251;53.550;9.918;2024-03-07T07:08:36;23.57;;;12.50;;
6436;SDS011;3251;53.550;9.918;2024-03-07T07:11:02;15.90;;;10.53;;
6436;SDS011;3251;53.550;9.918;2024-03-07T07:13:31;21.63;;;11.03;;
6436;SDS011;3251;53.550;9.918;2024-03-07T07:15:57;27.63;;;9.00;;
6436;SDS011;3251;53.550;9.918;2024-03-07T07:18:23;18.13;;;10.93;;
6436;SDS011;3251;53.550;9.918;2024-03-07T07:20:50;41.40;;;12.83;;
6436;SDS011;3251;53.550;9.918;2024-03-07T07:23:17;19.30;;;11.63;;
6436;SDS011;3251;53.550;9.918;2024-03-07T07:25:44;28.70;;;13.13;;
6436;SDS011;3251;53.550;9.918;2024-03-07T07:28:11;23.73;;;11.90;;
6436;SDS011;3251;53.550;9.918;2024-03-07T07:30:37;28.60;;;12.97;;
6436;SDS011;3251;53.550;9.918;2024-03-07T07:33:03;12.17;;;8.43;;
6436;SDS011;3251;53.550;9.918;2024-03-07T07:35:29;22.67;;;11.50;;
6436;SDS011;3251;53.550;9.918;2024-03-07T07:37:56;19.57;;;12.77;;
6436;SDS011;3251;53.550;9.918;2024-03-07T07:40:23;22.77;;;12.37;;
6436;SDS011;3251;53.550;9.918;2024-03-07T07:42:51;17.97;;;9.73;;
6436;SDS011;3251;53.550;9.918;2024-03-07T07:45:18;16.60;;;10.10;;
6436;SDS011;3251;53.550;9.918;2024-03-07T07:47:49;18.30;;;9.93;;
6436;SDS011;3251;53.550;9.918;2024-03-07T07:50:19;17.50;;;11.30;;
6436;SDS011;3251;53.550;9.918;2024-03-07T07:52:46;23.13;;;11.97;;
6436;SDS011;3251;53.550;9.918;2024-03-07T07:55:18;19.17;;;11.43;;
6436;SDS011;3251;53.550;9.918;2024-03-07T07:57:45;22.50;;;11.60;;
6436;SDS011;3251;53.550;9.918;2024-03-07T08:00:12;18.17;;;10.37;;
6436;SDS011;3251;53.550;9.918;2024-03-07T08:02:48;31.30;;;13.47;;
6436;SDS011;3251;53.550;9.918;2024-03-07T08:05:14;21.33;;;11.63;;
6436;SDS011;3251;53.550;9.918;2024-03-07T08:07:43;23.83;;;11.93;;
6436;SDS011;3251;53.550;9.918;2024-03-07T08:10:09;18.37;;;11.80;;
6436;SDS011;3251;53.550;9.918;2024-03-07T08:12:36;27.37;;;12.03;;
6436;SDS011;3251;53.550;9.918;2024-03-07T08:15:03;12.03;;;8.67;;
6436;SDS011;3251;53.550;9.918;2024-03-07T08:17:30;27.47;;;13.17;;
6436;SDS011;3251;53.550;9.918;2024-03-07T08:19:56;23.37;;;14.50;;
6436;SDS011;3251;53.550;9.918;2024-03-07T08:22:23;40.83;;;13.03;;
6436;SDS011;3251;53.550;9.918;2024-03-07T08:24:50;20.47;;;10.77;;
6436;SDS011;3251;53.550;9.918;2024-03-07T08:27:17;28.93;;;11.37;;
6436;SDS011;3251;53.550;9.918;2024-03-07T08:29:43;25.23;;;13.00;;
6436;SDS011;3251;53.550;9.918;2024-03-07T08:32:09;25.53;;;11.53;;
6436;SDS011;3251;53.550;9.918;2024-03-07T08:34:35;28.93;;;11.93;;
6436;SDS011;3251;53.550;9.918;2024-03-07T08:37:01;22.50;;;12.20;;
6436;SDS011;3251;53.550;9.918;2024-03-07T08:39:30;26.07;;;13.43;;
6436;SDS011;3251;53.550;9.918;2024-03-07T08:41:56;26.03;;;13.50;;
6436;SDS011;3251;53.550;9.918;2024-03-07T08:44:22;32.57;;;12.83;;
6436;SDS011;3251;53.550;9.918;2024-03-07T08:46:48;22.37;;;11.13;;
6436;SDS011;3251;53.550;9.918;2024-03-07T08:49:14;25.00;;;10.90;;
6436;SDS011;3251;53.550;9.918;2024-03-07T08:51:42;25.13;;;13.07;;
6436;SDS011;3251;53.550;9.918;2024-03-07T08:54:09;26.10;;;12.50;;
6436;SDS011;3251;53.550;9.918;2024-03-07T08:56:35;34.07;;;12.67;;
6436;SDS011;3251;53.550;9.918;2024-03-07T08:59:01;37.97;;;12.83;;
6436;SDS011;3251;53.550;9.918;2024-03-07T09:01:27;17.40;;;10.90;;
6436;SDS011;3251;53.550;9.918;2024-03-07T09:03:54;23.63;;;12.57;;
6436;SDS011;3251;53.550;9.918;2024-03-07T09:06:20;22.80;;;12.00;;
6436;SDS011;3251;53.550;9.918;2024-03-07T09:08:47;19.90;;;9.70;;
6436;SDS011;3251;53.550;9.918;2024-03-07T09:11:13;23.83;;;11.20;;
6436;SDS011;3251;53.550;9.918;2024-03-07T09:13:39;20.83;;;9.30;;
6436;SDS011;3251;53.550;9.918;2024-03-07T09:16:05;20.40;;;10.50;;
6436;SDS011;3251;53.550;9.918;2024-03-07T09:18:34;26.27;;;10.00;;
6436;SDS011;3251;53.550;9.918;2024-03-07T09:21:01;24.80;;;11.43;;
6436;SDS011;3251;53.550;9.918;2024-03-07T09:23:27;18.73;;;9.60;;
6436;SDS011;3251;53.550;9.918;2024-03-07T09:25:53;13.50;;;8.63;;
6436;SDS011;3251;53.550;9.918;2024-03-07T09:28:19;21.63;;;11.83;;
6436;SDS011;3251;53.550;9.918;2024-03-07T09:30:45;22.37;;;12.47;;
6436;SDS011;3251;53.550;9.918;2024-03-07T09:33:11;21.37;;;10.40;;
6436;SDS011;3251;53.550;9.918;2024-03-07T09:35:41;27.73;;;11.53;;
6436;SDS011;3251;53.550;9.918;2024-03-07T09:38:07;24.07;;;11.60;;
6436;SDS011;3251;53.550;9.918;2024-03-07T09:40:34;27.33;;;12.60;;
6436;SDS011;3251;53.550;9.918;2024-03-07T09:43:00;19.43;;;9.97;;
6436;SDS011;3251;53.550;9.918;2024-03-07T09:45:28;24.13;;;11.33;;
6436;SDS011;3251;53.550;9.918;2024-03-07T09:47:55;20.87;;;11.17;;
6436;SDS011;3251;53.550;9.918;2024-03-07T09:50:23;23.97;;;11.37;;
6436;SDS011;3251;53.550;9.918;2024-03-07T09:52:52;21.23;;;11.67;;
6436;SDS011;3251;53.550;9.918;2024-03-07T09:55:18;25.87;;;11.40;;
6436;SDS011;3251;53.550;9.918;2024-03-07T09:57:49;18.80;;;11.30;;
6436;SDS011;3251;53.550;9.918;2024-03-07T10:00:19;33.10;;;14.40;;
6436;SDS011;3251;53.550;9.918;2024-03-07T10:02:53;29.17;;;13.97;;
6436;SDS011;3251;53.550;9.918;2024-03-07T10:05:20;24.53;;;11.67;;
6436;SDS011;3251;53.550;9.918;2024-03-07T10:07:48;27.30;;;14.07;;
6436;SDS011;3251;53.550;9.918;2024-03-07T10:10:15;23.00;;;11.17;;
6436;SDS011;3251;53.550;9.918;2024-03-07T10:12:41;29.33;;;13.83;;
6436;SDS011;3251;53.550;9.918;2024-03-07T10:15:07;28.83;;;15.27;;
6436;SDS011;3251;53.550;9.918;2024-03-07T10:17:38;27.77;;;14.37;;
6436;SDS011;3251;53.550;9.918;2024-03-07T10:20:08;23.67;;;11.27;;
6436;SDS011;3251;53.550;9.918;2024-03-07T10:22:37;25.40;;;13.53;;
6436;SDS011;3251;53.550;9.918;2024-03-07T10:25:04;27.20;;;13.80;;
6436;SDS011;3251;53.550;9.918;2024-03-07T10:27:30;45.53;;;15.43;;
6436;SDS011;3251;53.550;9.918;2024-03-07T10:29:56;42.53;;;16.40;;
6436;SDS011;3251;53.550;9.918;2024-03-07T10:32:23;29.70;;;13.30;;
6436;SDS011;3251;53.550;9.918;2024-03-07T10:34:50;43.93;;;15.53;;
6436;SDS011;3251;53.550;9.918;2024-03-07T10:37:17;29.63;;;14.03;;
6436;SDS011;3251;53.550;9.918;2024-03-07T10:39:49;30.33;;;13.10;;
6436;SDS011;3251;53.550;9.918;2024-03-07T10:42:20;40.67;;;15.53;;
6436;SDS011;3251;53.550;9.918;2024-03-07T10:44:50;27.50;;;13.90;;
6436;SDS011;3251;53.550;9.918;2024-03-07T10:47:19;29.07;;;14.17;;
6436;SDS011;3251;53.550;9.918;2024-03-07T10:52:17;34.13;;;13.60;;
6436;SDS011;3251;53.550;9.918;2024-03-07T10:57:31;25.83;;;14.47;;
6436;SDS011;3251;53.550;9.918;2024-03-07T11:00:02;34.43;;;14.70;;
6436;SDS011;3251;53.550;9.918;2024-03-07T11:02:50;44.37;;;16.30;;
6436;SDS011;3251;53.550;9.918;2024-03-07T11:05:19;41.90;;;16.03;;
6436;SDS011;3251;53.550;9.918;2024-03-07T11:07:49;34.50;;;15.00;;
6436;SDS011;3251;53.550;9.918;2024-03-07T11:10:17;35.17;;;16.13;;
6436;SDS011;3251;53.550;9.918;2024-03-07T11:12:45;30.00;;;15.90;;
6436;SDS011;3251;53.550;9.918;2024-03-07T11:15:12;31.73;;;13.20;;
6436;SDS011;3251;53.550;9.918;2024-03-07T11:17:49;25.90;;;15.13;;
6436;SDS011;3251;53.550;9.918;2024-03-07T11:20:22;34.50;;;15.90;;
6436;SDS011;3251;53.550;9.918;2024-03-07T11:22:52;26.77;;;13.60;;
6436;SDS011;3251;53.550;9.918;2024-03-07T11:25:21;27.53;;;13.97;;
6436;SDS011;3251;53.550;9.918;2024-03-07T11:28:06;28.57;;;14.80;;
6436;SDS011;3251;53.550;9.918;2024-03-07T11:30:32;38.50;;;15.20;;
6436;SDS011;3251;53.550;9.918;2024-03-07T11:33:01;26.57;;;14.80;;
6436;SDS011;3251;53.550;9.918;2024-03-07T11:35:32;31.10;;;15.67;;
6436;SDS011;3251;53.550;9.918;2024-03-07T11:38:01;27.10;;;13.87;;
6436;SDS011;3251;53.550;9.918;2024-03-07T11:42:56;35.77;;;14.03;;
6436;SDS011;3251;53.550;9.918;2024-03-07T11:45:25;24.17;;;15.23;;
6436;SDS011;3251;53.550;9.918;2024-03-07T11:47:52;27.00;;;15.27;;
6436;SDS011;3251;53.550;9.918;2024-03-07T11:50:31;17.10;;;10.07;;
6436;SDS011;3251;53.550;9.918;2024-03-07T11:53:00;29.53;;;16.10;;
6436;SDS011;3251;53.550;9.918;2024-03-07T11:55:26;32.13;;;14.13;;
6436;SDS011;3251;53.550;9.918;2024-03-07T11:58:19;26.10;;;14.47;;
6436;SDS011;3251;53.550;9.918;2024-03-07T12:00:49;43.57;;;15.00;;
6436;SDS011;3251;53.550;9.918;2024-03-07T12:03:19;33.23;;;14.60;;
6436;SDS011;3251;53.550;9.918;2024-03-07T12:05:50;33.80;;;12.77;;
6436;SDS011;3251;53.550;9.918;2024-03-07T12:08:17;47.13;;;16.73;;
6436;SDS011;3251;53.550;9.918;2024-03-07T12:10:47;39.33;;;16.97;;
6436;SDS011;3251;53.550;9.918;2024-03-07T12:13:18;27.33;;;14.57;;
6436;SDS011;3251;53.550;9.918;2024-03-07T12:15:45;35.43;;;15.93;;
6436;SDS011;3251;53.550;9.918;2024-03-07T12:18:11;32.83;;;17.63;;
6436;SDS011;3251;53.550;9.918;2024-03-07T12:20:42;30.13;;;14.73;;
6436;SDS011;3251;53.550;9.918;2024-03-07T12:23:12;32.17;;;16.23;;
6436;SDS011;3251;53.550;9.918;2024-03-07T12:25:39;34.47;;;15.23;;
6436;SDS011;3251;53.550;9.918;2024-03-07T12:30:32;27.63;;;16.20;;
6436;SDS011;3251;53.550;9.918;2024-03-07T12:33:03;34.10;;;16.80;;
6436;SDS011;3251;53.550;9.918;2024-03-07T12:35:30;38.00;;;15.60;;
6436;SDS011;3251;53.550;9.918;2024-03-07T12:37:57;38.27;;;16.00;;
6436;SDS011;3251;53.550;9.918;2024-03-07T12:40:24;30.90;;;14.83;;
6436;SDS011;3251;53.550;9.918;2024-03-07T12:42:54;42.27;;;17.17;;
6436;SDS011;3251;53.550;9.918;2024-03-07T12:45:20;28.63;;;17.43;;
6436;SDS011;3251;53.550;9.918;2024-03-07T12:47:47;33.00;;;15.73;;
6436;SDS011;3251;53.550;9.918;2024-03-07T12:50:18;44.83;;;14.80;;
6436;SDS011;3251;53.550;9.918;2024-03-07T12:52:47;28.30;;;14.60;;
6436;SDS011;3251;53.550;9.918;2024-03-07T12:55:17;34.77;;;17.27;;
6436;SDS011;3251;53.550;9.918;2024-03-07T12:57:52;41.63;;;15.70;;
6436;SDS011;3251;53.550;9.918;2024-03-07T13:00:22;36.50;;;18.07;;
6436;SDS011;3251;53.550;9.918;2024-03-07T13:02:49;38.07;;;17.90;;
6436;SDS011;3251;53.550;9.918;2024-03-07T13:05:15;41.30;;;19.07;;
6436;SDS011;3251;53.550;9.918;2024-03-07T13:07:47;39.03;;;18.73;;
6436;SDS011;3251;53.550;9.918;2024-03-07T13:10:16;35.13;;;19.43;;
6436;SDS011;3251;53.550;9.918;2024-03-07T13:12:46;41.63;;;18.07;;
6436;SDS011;3251;53.550;9.918;2024-03-07T13:15:16;35.73;;;18.20;;
6436;SDS011;3251;53.550;9.918;2024-03-07T13:17:42;39.70;;;18.90;;
6436;SDS011;3251;53.550;9.918;2024-03-07T13:20:09;36.03;;;17.50;;
6436;SDS011;3251;53.550;9.918;2024-03-07T13:22:42;39.77;;;19.03;;
6436;SDS011;3251;53.550;9.918;2024-03-07T13:25:30;38.83;;;17.70;;
6436;SDS011;3251;53.550;9.918;2024-03-07T13:30:28;45.10;;;18.70;;
6436;SDS011;3251;53.550;9.918;2024-03-07T13:32:54;37.77;;;17.03;;
6436;SDS011;3251;53.550;9.918;2024-03-07T13:35:21;44.40;;;19.50;;
6436;SDS011;3251;53.550;9.918;2024-03-07T13:37:48;29.27;;;17.00;;
6436;SDS011;3251;53.550;9.918;2024-03-07T13:40:15;54.53;;;23.50;;
6436;SDS011;3251;53.550;9.918;2024-03-07T13:42:57;32.63;;;16.63;;
6436;SDS011;3251;53.550;9.918;2024-03-07T13:45:28;39.03;;;18.13;;
6436;SDS011;3251;53.550;9.918;2024-03-07T13:47:56;40.20;;;17.47;;
6436;SDS011;3251;53.550;9.918;2024-03-07T13:50:24;32.67;;;17.47;;
6436;SDS011;3251;53.550;9.918;2024-03-07T13:52:51;45.50;;;21.83;;
6436;SDS011;3251;53.550;9.918;2024-03-07T14:04:23;33.23;;;17.27;;
6436;SDS011;3251;53.550;9.918;2024-03-07T14:27:50;39.33;;;17.73;;
6436;SDS011;3251;53.550;9.918;2024-03-07T14:33:05;45.70;;;17.80;;
6436;SDS011;3251;53.550;9.918;2024-03-07T14:40:43;46.50;;;19.57;;
6436;SDS011;3251;53.550;9.918;2024-03-07T14:43:14;37.87;;;15.97;;
6436;SDS011;3251;53.550;9.918;2024-03-07T14:45:42;35.00;;;16.93;;
6436;SDS011;3251;53.550;9.918;2024-03-07T14:48:09;39.70;;;17.77;;
6436;SDS011;3251;53.550;9.918;2024-03-07T14:50:37;44.53;;;17.97;;
6436;SDS011;3251;53.550;9.918;2024-03-07T14:53:05;39.30;;;14.77;;
6436;SDS011;3251;53.550;9.918;2024-03-07T14:55:31;35.77;;;17.20;;
6436;SDS011;3251;53.550;9.918;2024-03-07T14:57:58;34.47;;;16.63;;
6436;SDS011;3251;53.550;9.918;2024-03-07T15:00:25;41.03;;;19.00;;
6436;SDS011;3251;53.550;9.918;2024-03-07T15:02:54;28.30;;;16.80;;
6436;SDS011;3251;53.550;9.918;2024-03-07T15:05:22;43.87;;;18.00;;
6436;SDS011;3251;53.550;9.918;2024-03-07T15:07:52;35.30;;;18.03;;
6436;SDS011;3251;53.550;9.918;2024-03-07T15:10:26;39.53;;;16.07;;
6436;SDS011;3251;53.550;9.918;2024-03-07T15:12:53;32.43;;;17.57;;
6436;SDS011;3251;53.550;9.918;2024-03-07T15:15:19;42.50;;;19.73;;
6436;SDS011;3251;53.550;9.918;2024-03-07T15:17:49;38.83;;;14.97;;
6436;SDS011;3251;53.550;9.918;2024-03-07T15:20:15;40.50;;;16.33;;
6436;SDS011;3251;53.550;9.918;2024-03-07T15:22:50;35.40;;;14.10;;
6436;SDS011;3251;53.550;9.918;2024-03-07T15:25:17;30.37;;;15.70;;
6436;SDS011;3251;53.550;9.918;2024-03-07T15:27:44;32.63;;;15.70;;
6436;SDS011;3251;53.550;9.918;2024-03-07T15:30:11;38.53;;;16.17;;
6436;SDS011;3251;53.550;9.918;2024-03-07T15:32:41;34.17;;;16.57;;
6436;SDS011;3251;53.550;9.918;2024-03-07T15:35:11;34.07;;;15.77;;
6436;SDS011;3251;53.550;9.918;2024-03-07T15:37:41;36.70;;;15.07;;
6436;SDS011;3251;53.550;9.918;2024-03-07T15:40:08;28.90;;;14.60;;
6436;SDS011;3251;53.550;9.918;2024-03-07T15:42:43;34.90;;;17.67;;
6436;SDS011;3251;53.550;9.918;2024-03-07T15:45:17;31.93;;;15.87;;
6436;SDS011;3251;53.550;9.918;2024-03-07T15:47:43;32.57;;;15.40;;
6436;SDS011;3251;53.550;9.918;2024-03-07T15:50:10;30.20;;;16.50;;
6436;SDS011;3251;53.550;9.918;2024-03-07T15:52:41;35.80;;;17.00;;
6436;SDS011;3251;53.550;9.918;2024-03-07T15:55:08;32.07;;;15.50;;
6436;SDS011;3251;53.550;9.918;2024-03-07T15:57:48;33.57;;;16.47;;
6436;SDS011;3251;53.550;9.918;2024-03-07T16:00:18;41.93;;;20.43;;
6436;SDS011;3251;53.550;9.918;2024-03-07T16:05:20;38.93;;;17.10;;
6436;SDS011;3251;53.550;9.918;2024-03-07T16:07:49;29.87;;;14.80;;
6436;SDS011;3251;53.550;9.918;2024-03-07T16:10:16;32.83;;;15.37;;
6436;SDS011;3251;53.550;9.918;2024-03-07T16:12:42;29.87;;;14.80;;
6436;SDS011;3251;53.550;9.918;2024-03-07T16:15:08;29.40;;;13.20;;
6436;SDS011;3251;53.550;9.918;2024-03-07T16:17:35;26.53;;;14.23;;
6436;SDS011;3251;53.550;9.918;2024-03-07T16:20:04;33.20;;;14.60;;
6436;SDS011;3251;53.550;9.918;2024-03-07T16:22:46;31.40;;;15.57;;
6436;SDS011;3251;53.550;9.918;2024-03-07T16:25:14;42.50;;;13.70;;
6436;SDS011;3251;53.550;9.918;2024-03-07T16:27:41;27.83;;;15.13;;
6436;SDS011;3251;53.550;9.918;2024-03-07T16:30:11;33.40;;;15.57;;
6436;SDS011;3251;53.550;9.918;2024-03-07T16:32:42;26.83;;;14.27;;
6436;SDS011;3251;53.550;9.918;2024-03-07T16:35:13;34.60;;;16.33;;
6436;SDS011;3251;53.550;9.918;2024-03-07T16:37:44;31.93;;;14.67;;
6436;SDS011;3251;53.550;9.918;2024-03-07T16:42:37;27.10;;;16.53;;
6436;SDS011;3251;53.550;9.918;2024-03-07T16:45:07;36.97;;;17.67;;
6436;SDS011;3251;53.550;9.918;2024-03-07T16:47:43;38.73;;;15.43;;
6436;SDS011;3251;53.550;9.918;2024-03-07T16:50:10;44.50;;;16.00;;
6436;SDS011;3251;53.550;9.918;2024-03-07T16:52:39;39.23;;;18.07;;
6436;SDS011;3251;53.550;9.918;2024-03-07T16:55:06;38.67;;;17.73;;
6436;SDS011;3251;53.550;9.918;2024-03-07T16:57:38;28.33;;;15.67;;
6436;SDS011;3251;53.550;9.918;2024-03-07T17:00:05;51.33;;;20.27;;
6436;SDS011;3251;53.550;9.918;2024-03-07T17:02:32;43.20;;;17.67;;
6436;SDS011;3251;53.550;9.918;2024-03-07T17:05:00;59.10;;;18.90;;
6436;SDS011;3251;53.550;9.918;2024-03-07T17:07:26;44.73;;;19.50;;
6436;SDS011;3251;53.550;9.918;2024-03-07T17:09:53;44.43;;;19.43;;
6436;SDS011;3251;53.550;9.918;2024-03-07T17:12:19;50.53;;;18.53;;
6436;SDS011;3251;53.550;9.918;2024-03-07T17:14:45;46.67;;;18.87;;
6436;SDS011;3251;53.550;9.918;2024-03-07T17:17:11;51.60;;;22.37;;
6436;SDS011;3251;53.550;9.918;2024-03-07T17:19:41;49.97;;;19.23;;
6436;SDS011;3251;53.550;9.918;2024-03-07T17:22:07;57.97;;;18.70;;
6436;SDS011;3251;53.550;9.918;2024-03-07T17:24:34;50.53;;;22.17;;
6436;SDS011;3251;53.550;9.918;2024-03-07T17:27:00;48.47;;;21.23;;
6436;SDS011;3251;53.550;9.918;2024-03-07T17:29:28;44.93;;;21.40;;
6436;SDS011;3251;53.550;9.918;2024-03-07T17:31:54;38.17;;;17.80;;
6436;SDS011;3251;53.550;9.918;2024-03-07T17:34:20;38.97;;;20.77;;
6436;SDS011;3251;53.550;9.918;2024-03-07T17:36:49;48.60;;;20.40;;
6436;SDS011;3251;53.550;9.918;2024-03-07T17:39:16;44.13;;;20.53;;
6436;SDS011;3251;53.550;9.918;2024-03-07T17:41:42;43.30;;;21.50;;
6436;SDS011;3251;53.550;9.918;2024-03-07T17:44:08;45.63;;;19.90;;
6436;SDS011;3251;53.550;9.918;2024-03-07T17:46:41;40.40;;;18.20;;
6436;SDS011;3251;53.550;9.918;2024-03-07T17:49:07;35.90;;;16.10;;
6436;SDS011;3251;53.550;9.918;2024-03-07T17:51:36;39.17;;;17.57;;
6436;SDS011;3251;53.550;9.918;2024-03-07T17:54:02;36.30;;;19.47;;
6436;SDS011;3251;53.550;9.918;2024-03-07T17:56:34;39.10;;;16.40;;
6436;SDS011;3251;53.550;9.918;2024-03-07T17:59:00;42.90;;;18.90;;
6436;SDS011;3251;53.550;9.918;2024-03-07T18:01:26;39.37;;;19.13;;
6436;SDS011;3251;53.550;9.918;2024-03-07T18:03:56;45.90;;;19.20;;
6436;SDS011;3251;53.550;9.918;2024-03-07T18:06:22;35.60;;;17.73;;
6436;SDS011;3251;53.550;9.918;2024-03-07T18:08:49;44.50;;;17.83;;
6436;SDS011;3251;53.550;9.918;2024-03-07T18:11:16;37.57;;;15.67;;
6436;SDS011;3251;53.550;9.918;2024-03-07T18:13:44;35.30;;;18.90;;
6436;SDS011;3251;53.550;9.918;2024-03-07T18:16:12;38.07;;;17.80;;
6436;SDS011;3251;53.550;9.918;2024-03-07T18:18:39;23.60;;;14.00;;
6436;SDS011;3251;53.550;9.918;2024-03-07T18:21:07;32.60;;;14.60;;
6436;SDS011;3251;53.550;9.918;2024-03-07T18:23:37;33.97;;;18.03;;
6436;SDS011;3251;53.550;9.918;2024-03-07T18:26:03;36.70;;;17.07;;
6436;SDS011;3251;53.550;9.918;2024-03-07T18:28:33;30.77;;;16.33;;
6436;SDS011;3251;53.550;9.918;2024-03-07T18:31:01;39.27;;;14.20;;
6436;SDS011;3251;53.550;9.918;2024-03-07T18:33:54;30.70;;;14.70;;
6436;SDS011;3251;53.550;9.918;2024-03-07T18:36:20;34.70;;;15.43;;
6436;SDS011;3251;53.550;9.918;2024-03-07T18:38:49;31.00;;;14.50;;
6436;SDS011;3251;53.550;9.918;2024-03-07T18:41:16;24.57;;;12.40;;
6436;SDS011;3251;53.550;9.918;2024-03-07T18:43:42;28.80;;;14.03;;
6436;SDS011;3251;53.550;9.918;2024-03-07T18:46:08;32.73;;;15.60;;
6436;SDS011;3251;53.550;9.918;2024-03-07T18:48:34;24.60;;;13.77;;
6436;SDS011;3251;53.550;9.918;2024-03-07T18:51:01;18.60;;;12.40;;
6436;SDS011;3251;53.550;9.918;2024-03-07T18:53:30;33.33;;;14.60;;
6436;SDS011;3251;53.550;9.918;2024-03-07T18:55:59;45.03;;;17.97;;
6436;SDS011;3251;53.550;9.918;2024-03-07T18:58:35;16.83;;;10.37;;
6436;SDS011;3251;53.550;9.918;2024-03-07T19:01:02;40.50;;;16.40;;
6436;SDS011;3251;53.550;9.918;2024-03-07T19:03:30;36.47;;;16.83;;
6436;SDS011;3251;53.550;9.918;2024-03-07T19:05:56;36.07;;;14.73;;
6436;SDS011;3251;53.550;9.918;2024-03-07T19:08:22;35.73;;;16.10;;
6436;SDS011;3251;53.550;9.918;2024-03-07T19:10:51;33.53;;;16.90;;
6436;SDS011;3251;53.550;9.918;2024-03-07T19:13:18;42.90;;;16.80;;
6436;SDS011;3251;53.550;9.918;2024-03-07T19:15:45;33.70;;;17.10;;
6436;SDS011;3251;53.550;9.918;2024-03-07T19:18:13;37.23;;;16.30;;
6436;SDS011;3251;53.550;9.918;2024-03-07T19:20:40;30.93;;;15.23;;
6436;SDS011;3251;53.550;9.918;2024-03-07T19:23:06;21.40;;;13.80;;
6436;SDS011;3251;53.550;9.918;2024-03-07T19:25:36;34.17;;;16.03;;
6436;SDS011;3251;53.550;9.918;2024-03-07T19:28:05;45.80;;;14.50;;
6436;SDS011;3251;53.550;9.918;2024-03-07T19:30:39;39.60;;;15.90;;
6436;SDS011;3251;53.550;9.918;2024-03-07T19:33:09;27.13;;;13.87;;
6436;SDS011;3251;53.550;9.918;2024-03-07T19:38:09;24.67;;;12.87;;
6436;SDS011;3251;53.550;9.918;2024-03-07T19:40:35;30.63;;;13.13;;
6436;SDS011;3251;53.550;9.918;2024-03-07T19:43:02;25.97;;;12.63;;
6436;SDS011;3251;53.550;9.918;2024-03-07T19:45:41;21.20;;;9.20;;
6436;SDS011;3251;53.550;9.918;2024-03-07T19:48:08;34.30;;;14.13;;
6436;SDS011;3251;53.550;9.918;2024-03-07T19:50:38;36.47;;;15.03;;
6436;SDS011;3251;53.550;9.918;2024-03-07T19:53:04;32.27;;;15.13;;
6436;SDS011;3251;53.550;9.918;2024-03-07T19:55:42;37.27;;;15.17;;
6436;SDS011;3251;53.550;9.918;2024-03-07T19:58:10;32.60;;;15.00;;
6436;SDS011;3251;53.550;9.918;2024-03-07T20:00:38;30.23;;;14.43;;
6436;SDS011;3251;53.550;9.918;2024-03-07T20:03:09;32.07;;;14.63;;
6436;SDS011;3251;53.550;9.918;2024-03-07T20:05:39;33.80;;;14.73;;
6436;SDS011;3251;53.550;9.918;2024-03-07T20:08:06;33.50;;;14.87;;
6436;SDS011;3251;53.550;9.918;2024-03-07T20:10:39;37.87;;;17.60;;
6436;SDS011;3251;53.550;9.918;2024-03-07T20:13:07;38.60;;;13.57;;
6436;SDS011;3251;53.550;9.918;2024-03-07T20:15:37;30.90;;;15.17;;
6436;SDS011;3251;53.550;9.918;2024-03-07T20:18:05;28.77;;;14.77;;
6436;SDS011;3251;53.550;9.918;2024-03-07T20:20:31;41.67;;;16.03;;
6436;SDS011;3251;53.550;9.918;2024-03-07T20:23:01;33.97;;;13.50;;
6436;SDS011;3251;53.550;9.918;2024-03-07T20:25:29;33.87;;;15.83;;
6436;SDS011;3251;53.550;9.918;2024-03-07T20:27:57;33.77;;;16.37;;
6436;SDS011;3251;53.550;9.918;2024-03-07T20:30:23;37.57;;;14.07;;
6436;SDS011;3251;53.550;9.918;2024-03-07T20:32:52;26.90;;;14.80;;
6436;SDS011;3251;53.550;9.918;2024-03-07T20:35:21;35.10;;;15.90;;
6436;SDS011;3251;53.550;9.918;2024-03-07T20:37:47;27.70;;;13.60;;
6436;SDS011;3251;53.550;9.918;2024-03-07T20:40:17;36.40;;;13.20;;
6436;SDS011;3251;53.550;9.918;2024-03-07T20:42:45;31.30;;;14.53;;
6436;SDS011;3251;53.550;9.918;2024-03-07T20:45:12;33.23;;;15.37;;
6436;SDS011;3251;53.550;9.918;2024-03-07T20:47:43;45.67;;;14.97;;
6436;SDS011;3251;53.550;9.918;2024-03-07T20:50:11;32.77;;;15.70;;
6436;SDS011;3251;53.550;9.918;2024-03-07T20:52:37;31.73;;;15.90;;
6436;SDS011;3251;53.550;9.918;2024-03-07T20:55:04;36.53;;;13.70;;
6436;SDS011;3251;53.550;9.918;2024-03-07T20:57:33;28.00;;;14.73;;
6436;SDS011;3251;53.550;9.918;2024-03-07T21:00:00;33.67;;;14.57;;
6436;SDS011;3251;53.550;9.918;2024-03-07T21:02:30;24.57;;;14.00;;
6436;SDS011;3251;53.550;9.918;2024-03-07T21:04:57;39.53;;;14.03;;
6436;SDS011;3251;53.550;9.918;2024-03-07T21:07:25;30.33;;;16.03;;
6436;SDS011;3251;53.550;9.918;2024-03-07T21:09:51;28.30;;;13.07;;
6436;SDS011;3251;53.550;9.918;2024-03-07T21:12:17;29.47;;;14.30;;
6436;SDS011;3251;53.550;9.918;2024-03-07T21:14:43;38.83;;;16.67;;
6436;SDS011;3251;53.550;9.918;2024-03-07T21:17:10;24.00;;;13.90;;
6436;SDS011;3251;53.550;9.918;2024-03-07T21:19:36;33.27;;;14.80;;
6436;SDS011;3251;53.550;9.918;2024-03-07T21:22:02;40.73;;;16.37;;
6436;SDS011;3251;53.550;9.918;2024-03-07T21:24:28;21.63;;;10.63;;
6436;SDS011;3251;53.550;9.918;2024-03-07T21:26:55;24.00;;;13.67;;
6436;SDS011;3251;53.550;9.918;2024-03-07T21:29:21;31.97;;;14.43;;
6436;SDS011;3251;53.550;9.918;2024-03-07T21:31:48;34.00;;;16.20;;
6436;SDS011;3251;53.550;9.918;2024-03-07T21:34:14;30.60;;;12.87;;
6436;SDS011;3251;53.550;9.918;2024-03-07T21:36:43;25.10;;;14.47;;
6436;SDS011;3251;53.550;9.918;2024-03-07T21:39:09;23.80;;;11.03;;
6436;SDS011;3251;53.550;9.918;2024-03-07T21:41:36;23.17;;;11.80;;
6436;SDS011;3251;53.550;9.918;2024-03-07T21:44:02;27.13;;;13.00;;
6436;SDS011;3251;53.550;9.918;2024-03-07T21:46:28;26.80;;;11.30;;
6436;SDS011;3251;53.550;9.918;2024-03-07T21:48:56;39.03;;;15.23;;
6436;SDS011;3251;53.550;9.918;2024-03-07T21:51:22;40.13;;;13.00;;
6436;SDS011;3251;53.550;9.918;2024-03-07T21:53:48;29.20;;;12.70;;
6436;SDS011;3251;53.550;9.918;2024-03-07T21:56:14;26.40;;;13.13;;
6436;SDS011;3251;53.550;9.918;2024-03-07T21:58:51;21.63;;;12.90;;
6436;SDS011;3251;53.550;9.918;2024-03-07T22:01:18;34.53;;;16.17;;
6436;SDS011;3251;53.550;9.918;2024-03-07T22:03:44;29.30;;;14.90;;
6436;SDS011;3251;53.550;9.918;2024-03-07T22:06:10;46.57;;;14.50;;
6436;SDS011;3251;53.550;9.918;2024-03-07T22:08:37;27.70;;;13.60;;
6436;SDS011;3251;53.550;9.918;2024-03-07T22:11:03;39.03;;;15.20;;
6436;SDS011;3251;53.550;9.918;2024-03-07T22:13:30;27.47;;;13.00;;
6436;SDS011;3251;53.550;9.918;2024-03-07T22:15:56;30.03;;;13.93;;
6436;SDS011;3251;53.550;9.918;2024-03-07T22:18:23;28.47;;;16.67;;
6436;SDS011;3251;53.550;9.918;2024-03-07T22:20:51;27.47;;;13.97;;
6436;SDS011;3251;53.550;9.918;2024-03-07T22:23:17;35.30;;;14.60;;
6436;SDS011;3251;53.550;9.918;2024-03-07T22:25:43;28.53;;;14.87;;
6436;SDS011;3251;53.550;9.918;2024-03-07T22:28:09;35.47;;;17.10;;
6436;SDS011;3251;53.550;9.918;2024-03-07T22:30:35;22.23;;;13.57;;
6436;SDS011;3251;53.550;9.918;2024-03-07T22:33:03;31.80;;;15.77;;
6436;SDS011;3251;53.550;9.918;2024-03-07T22:35:32;32.90;;;14.60;;
6436;SDS011;3251;53.550;9.918;2024-03-07T22:37:59;30.87;;;13.40;;
6436;SDS011;3251;53.550;9.918;2024-03-07T22:40:25;33.63;;;16.17;;
6436;SDS011;3251;53.550;9.918;2024-03-07T22:42:52;34.63;;;13.83;;
6436;SDS011;3251;53.550;9.918;2024-03-07T22:45:18;31.33;;;13.80;;
6436;SDS011;3251;53.550;9.918;2024-03-07T22:47:44;36.93;;;16.97;;